Terminal Aerodrome Forecast
Issued by NWS St Louis, MO

Home | Current Version | Previous Version | Text Only | Print | Product List | Glossary On
Versions: 1 2 3 4 5 6 7 8 9 10 11 12 13 14 15 16 17 18 19 20 21
000
FTUS43 KLSX 182000 AAB
TAFCOU
TAF AMD
KCOU 182036Z 1821/1918 18012KT P6SM VCTS BKN045CB
      TEMPO 1821/1824 3SM TSRA OVC030CB
     FM190000 13007KT P6SM SCT050 BKN150
     FM191100 20005KT 5SM -SHRA OVC040
     FM191500 26007KT 6SM -SHRA OVC040=

USA.gov is the U.S. government's official web portal to all federal, state and local government web resources and services.